Terminal Aerodrome Forecast
Issued by NWS Duluth, MN

Home | Current Version | Previous Version | Text Only | Print | Product List | Glossary On
Versions: 1 2 3 4 5 6 7 8 9 10 11 12 13 14 15 16 17 18 19 20 21 22 23 24 25 26
172
FTUS43 KDLH 221729
TAFDLH
TAF
KDLH 221729Z 2218/2318 17008KT P6SM SKC
     FM222000 17010KT P6SM SCT250
     FM231200 18009KT P6SM VCSH SCT030 BKN060
     FM231400 18012G22KT P6SM VCSH SCT030 BKN060=

USA.gov is the U.S. government's official web portal to all federal, state and local government web resources and services.